nws-alerts: Checking more than four warning/county codes can delay the loading of your pages. You should use a cron job to get the data.

Nearby METAR Reports

 

KFCI - Richmond/Chester, Virginia, USA
Distance from station: ESE 7mi, 11km
Updated: Sun, 05-Dec-2021 5:56am EST
Few Clouds
Few Clouds
 Wind from W
Wind: W 8 mph , 13 km/h
Temperature: 30°F , -1°C
Wind Chill: 22°F , -6°C
Dew Point: 30°F , -1°C
Humidity: 100%
Barometer: 30.31 inHg , 1026.4 hPa
Clouds: Few Clouds
Visibility: 10 miles , 16 km
Cloud details: Few Clouds 10000 ft
2021/12/05 10:56 KFCI 051056Z AUTO 28007KT 180V050 10SM FEW100 M01/M01 A3031 RMK AO2 SLP279 T10061006 FZRANO
KRIC - Richmond, Virginia, USA
Distance from station: ENE 19mi, 30km
Updated: Sun, 05-Dec-2021 5:54am EST
Partly cloudy
Partly cloudy
 Wind from calm
Wind: Calm
Temperature: 37°F , 3°C
Dew Point: 34°F , 1°C
Humidity: 87%
Barometer: 30.31 inHg , 1026.4 hPa
Clouds: Partly cloudy
Visibility: 10 miles , 16 km
Cloud details: Partly cloudy 9000 ft
Partly cloudy 30000 ft
2021/12/05 10:54 KRIC 051054Z 00000KT 10SM SCT090 SCT300 03/01 A3031 RMK AO2 SLP270 T00330006
 
KPTB - Petersburg, Virginia, USA
Distance from station: SSE 19mi, 31km
Updated: Sun, 05-Dec-2021 5:55am EST
Clear
Clear
 Wind from calm
Wind: Calm
Temperature: 39°F , 4°C
Dew Point: 37°F , 3°C
Humidity: 93%
Barometer: 30.31 inHg , 1026.4 hPa
Clouds: Clear
Visibility: 10 miles , 16 km
2021/12/05 10:55 KPTB 051055Z AUTO 00000KT 10SM CLR 04/03 A3031 RMK AO2 T00350028 TSNO
KOFP - Richmond/Hanover, Virginia, USA
Distance from station: NNE 22mi, 36km
Updated: Sun, 05-Dec-2021 5:54am EST
Few Clouds
Few Clouds
 Wind from calm
Wind: Calm
Temperature: 32°F , 0°C
Dew Point: 28°F , -2°C
Humidity: 87%
Barometer: 30.33 inHg , 1027.1 hPa
Clouds: Few Clouds
Visibility: 7 miles , 11 km
Cloud details: Few Clouds 9500 ft
2021/12/05 10:54 KOFP 051054Z AUTO 00000KT 7SM FEW095 00/M02 A3033 RMK AO2 SLP271 T00001017
 
KW96 - Quinton, Virginia, USA
Distance from station: E 28mi, 46km
Updated: Sun, 05-Dec-2021 6:15am EST
Clear
Clear
 Wind from calm
Wind: Calm
Temperature: 32°F , 0°C
Dew Point: 32°F , 0°C
Humidity: 100%
Barometer: 30.31 inHg , 1026.4 hPa
Clouds: Clear
Visibility: 10 miles , 16 km
2021/12/05 11:15 KW96 051115Z AUTO 00000KT 10SM CLR 00/00 A3031 RMK AO1 T00020000
KBKT - Blackstone Army, Virginia, USA
Distance from station: SW 30mi, 48km
Updated: Sun, 05-Dec-2021 5:56am EST
Overcast
Overcast
 Wind from NNE
Wind: NNE 3 mph , 6 km/h
Temperature: 39°F , 4°C
Dew Point: 39°F , 4°C
Humidity: 100%
Barometer: 30.28 inHg , 1025.4 hPa
Clouds: Overcast
Visibility: 10 miles , 16 km
Cloud details: Partly cloudy 19000 ft
Overcast 21000 ft
2021/12/05 10:56 KBKT 051056Z AUTO 03003KT 10SM SCT190 OVC210 04/04 A3028 RMK AO2 SLP259 T00440037
 
KW81 - Crewe, Virginia, USA
Distance from station: SW 30mi, 49km
Updated: Sun, 05-Dec-2021 5:55am EST
Clear
Clear
 Wind from calm
Wind: Calm
Temperature: 36°F , 2°C
Dew Point: 34°F , 1°C
Humidity: 93%
Barometer: 30.30 inHg , 1026.1 hPa
Clouds: Clear
Visibility: 10 miles , 16 km
2021/12/05 10:55 KW81 051055Z AUTO 00000KT 10SM CLR 02/01 A3030 RMK AO1 T00180005
K7W4 - Bumpass, Virginia, USA
Distance from station: N 38mi, 61km
Updated: Sun, 05-Dec-2021 5:55am EST
Clear
Clear
 Wind from calm
Wind: Calm
Temperature: 30°F , -1°C
Dew Point: 30°F , -1°C
Humidity: 100%
Barometer: 30.31 inHg , 1026.4 hPa
Clouds: Clear
Visibility: 7 miles , 11 km
2021/12/05 10:55 K7W4 051055Z AUTO 00000KT 7SM CLR M01/M01 A3031 RMK AO1 T10061011
 
KFVX - Farmville, Virginia, USA
Distance from station: W 43mi, 69km
Updated: Sun, 05-Dec-2021 5:55am EST
Mostly cloudy
Mostly cloudy
 Wind from calm
Wind: Calm
Temperature: 28°F , -2°C
Dew Point: 27°F , -3°C
Humidity: 93%
Barometer: 30.31 inHg , 1026.4 hPa
Clouds: Mostly cloudy
Visibility: 10 miles , 16 km
Cloud details: Mostly cloudy 6500 ft
Mostly cloudy 9000 ft
2021/12/05 10:55 KFVX 051055Z AUTO 00000KT 10SM BKN065 BKN090 M02/M03 A3031 RMK AO2 T10251030
KW31 - Kenbridge, Virginia, USA
Distance from station: SW 43mi, 70km
Updated: Sun, 05-Dec-2021 6:15am EST
Clear
Clear
 Wind from calm
Wind: Calm
Temperature: 43°F , 6°C
Dew Point: 39°F , 4°C
Humidity: 87%
Barometer: 30.29 inHg , 1025.7 hPa
Clouds: Clear
Visibility: 10 miles , 16 km
2021/12/05 11:15 KW31 051115Z AUTO 00000KT 10SM CLR 06/04 A3029 RMK AO1 T00620042
 
KLKU - Louisa, Virginia, USA
Distance from station: NNW 44mi, 72km
Updated: Sun, 05-Dec-2021 5:55am EST
Clear
Clear
 Wind from calm
Wind: Calm
Temperature: 32°F , 0°C
Dew Point: 32°F , 0°C
Humidity: 100%
Barometer: 30.35 inHg , 1027.8 hPa
Clouds: Clear
Visibility: 10 miles , 16 km
2021/12/05 10:55 KLKU 051055Z AUTO 00000KT 10SM CLR 00/00 A3035 RMK AO2 T00010000
KLVL - Lawrenceville, Virginia, USA
Distance from station: S 46mi, 75km
Updated: Sun, 05-Dec-2021 5:55am EST
Clear
Clear
 Wind from calm
Wind: Calm
Temperature: 41°F , 5°C
Dew Point: 39°F , 4°C
Humidity: 93%
Barometer: 30.30 inHg , 1026.1 hPa
Clouds: Clear
Visibility: 10 miles , 16 km
2021/12/05 10:55 KLVL 051055Z AUTO 00000KT 10SM CLR 05/04 A3030 RMK AO1 T00490044
 
KAKQ - Norfolk/Wakefld, Virginia, USA
Distance from station: SE 47mi, 75km
Updated: Sun, 05-Dec-2021 5:54am EST
Mist, Clear
Mist, Clear
 Wind from calm
Wind: Calm
Temperature: 36°F , 2°C
Dew Point: 36°F , 2°C
Humidity: 100%
Barometer: 30.30 inHg , 1026.1 hPa
Summary: Mist
Clouds: Clear
Visibility: 6 miles , 10 km
2021/12/05 10:54 KAKQ 051054Z AUTO 00000KT 6SM BR CLR 02/02 A3030 RMK AO2 SLP262 I1000 T00220017
KFYJ - West Point, Virginia, USA
Distance from station: E 48mi, 78km
Updated: Sun, 05-Dec-2021 5:55am EST

 Wind from calm
Wind: Calm
Temperature: 32°F , 0°C
Dew Point: 32°F , 0°C
Humidity: 100%
Barometer: 30.32 inHg , 1026.8 hPa
Visibility: 10 miles , 16 km
2021/12/05 10:55 KFYJ 051055Z AUTO 00000KT 10SM 00/00 A3032 RMK AO1 T00021001